Time;durP1;ratioP1;P1;durP2;ratioP2;P2;SDS_P1;SDS_P2;PMS_P1;PMS_P2;Temp;Humidity;BMP_temperature;BMP_pressure;BME280_temperature;BME280_humidity;BME280_pressure;Samples;Min_cycle;Max_cycle;Signal;HPM_P1;HPM_P2
2022/05/19 00:00:24;;;;;;;6.10;4.10;;;;;;;8.88;52.58;99254.28;5044995;28;20536;-73
2022/05/19 00:02:49;;;;;;;6.00;3.78;;;;;;;8.85;52.63;99248.31;5097701;27;20497;-69
2022/05/19 00:05:16;;;;;;;7.85;4.00;;;;;;;8.85;52.86;99257.13;5057774;27;20561;-74
2022/05/19 00:07:41;;;;;;;7.57;4.20;;;;;;;8.84;53.08;99257.25;5098045;27;20560;-69
2022/05/19 00:10:07;;;;;;;4.22;3.53;;;;;;;8.86;52.38;99248.22;5076336;27;20458;-66
2022/05/19 00:12:32;;;;;;;4.03;3.60;;;;;;;8.79;53.51;99241.63;5042536;28;20410;-66
2022/05/19 00:15:00;;;;;;;4.78;3.58;;;;;;;8.82;52.67;99233.44;5069487;27;20410;-69
2022/05/19 00:17:25;;;;;;;5.93;3.53;;;;;;;8.83;53.21;99237.78;5054839;27;20058;-69
2022/05/19 00:19:50;;;;;;;3.95;3.20;;;;;;;8.80;53.26;99235.38;5069075;27;20474;-68
2022/05/19 00:22:18;;;;;;;6.35;3.65;;;;;;;8.83;53.56;99227.16;5079929;27;20042;-68
2022/05/19 00:24:43;;;;;;;5.53;4.20;;;;;;;8.88;52.86;99224.19;5062596;27;20074;-68
2022/05/19 00:27:08;;;;;;;5.03;3.45;;;;;;;8.87;53.06;99220.66;5098382;27;20327;-68
2022/05/19 00:29:32;;;;;;;6.15;3.38;;;;;;;8.85;53.99;99224.38;5098748;27;20205;-68
2022/05/19 00:31:57;;;;;;;4.65;3.47;;;;;;;8.86;53.64;99218.97;5081214;27;20061;-68
2022/05/19 00:34:22;;;;;;;8.93;4.03;;;;;;;8.88;53.37;99218.88;5099243;27;20096;-69
2022/05/19 00:36:47;;;;;;;7.97;3.80;;;;;;;8.81;53.88;99226.41;5098575;27;20050;-67
2022/05/19 00:39:13;;;;;;;7.03;4.20;;;;;;;8.83;53.88;99234.28;5096607;27;20043;-67
2022/05/19 00:41:43;;;;;;;6.05;3.42;;;;;;;8.87;53.61;99244.59;5078170;27;20039;-67
2022/05/19 00:44:08;;;;;;;6.35;4.15;;;;;;;8.84;54.04;99239.50;5075791;27;20035;-68
2022/05/19 00:46:56;;;;;;;6.85;4.00;;;;;;;8.91;53.74;99235.47;5077365;27;20039;-67
2022/05/19 00:49:25;;;;;;;12.45;3.78;;;;;;;8.96;53.46;99233.31;5060544;27;20119;-66
2022/05/19 00:52:20;;;;;;;7.85;4.05;;;;;;;9.02;53.22;99240.00;5091147;27;20495;-67
2022/05/19 00:54:49;;;;;;;4.75;3.60;;;;;;;8.99;53.54;99222.47;5077674;27;20068;-66
2022/05/19 00:57:20;;;;;;;6.70;3.90;;;;;;;9.01;53.57;99236.50;5079558;27;20385;-67
2022/05/19 00:59:58;;;;;;;7.22;3.80;;;;;;;8.97;53.46;99239.47;5056478;27;20093;-69
2022/05/19 01:02:30;;;;;;;6.07;4.07;;;;;;;8.92;53.95;99242.44;5091182;27;20526;-67
2022/05/19 01:05:00;;;;;;;8.20;3.88;;;;;;;8.81;53.94;99239.69;5075124;27;20089;-66
2022/05/19 01:07:40;;;;;;;4.22;3.42;;;;;;;8.81;53.85;99245.00;5091633;27;20417;-66
2022/05/19 01:10:06;;;;;;;5.18;3.13;;;;;;;8.69;54.16;99240.59;5095244;27;20043;-68
2022/05/19 01:12:31;;;;;;;10.18;3.78;;;;;;;8.56;54.83;99231.78;5096737;27;20039;-66
2022/05/19 01:14:59;;;;;;;7.75;3.75;;;;;;;8.54;54.30;99228.38;5078308;27;20095;-72
2022/05/19 01:17:23;;;;;;;6.47;3.63;;;;;;;8.49;54.68;99233.97;5074449;27;20143;-68
2022/05/19 01:19:57;;;;;;;5.53;3.58;;;;;;;8.52;55.66;99240.91;5077653;27;20047;-67
2022/05/19 01:22:41;;;;;;;4.00;3.10;;;;;;;8.63;55.29;99233.03;5072883;28;20498;-68
2022/05/19 01:25:27;;;;;;;5.97;3.45;;;;;;;8.73;55.25;99240.25;5092293;27;20063;-69
2022/05/19 01:27:52;;;;;;;7.18;4.03;;;;;;;8.74;54.70;99246.41;5097088;27;20139;-69
2022/05/19 01:30:17;;;;;;;4.65;3.15;;;;;;;8.81;55.21;99245.00;5096431;27;20122;-67
2022/05/19 01:32:42;;;;;;;4.85;3.33;;;;;;;8.83;55.12;99243.09;5097322;27;20517;-69
2022/05/19 01:35:08;;;;;;;5.57;4.22;;;;;;;8.93;54.23;99240.63;5061717;27;20133;-68
2022/05/19 01:37:32;;;;;;;8.52;3.35;;;;;;;8.98;54.11;99231.38;5097234;27;20047;-69
2022/05/19 01:40:14;;;;;;;3.97;3.55;;;;;;;9.01;54.07;99230.31;5096255;27;20051;-69
2022/05/19 01:43:10;;;;;;;4.28;3.47;;;;;;;9.09;53.85;99223.50;5095829;27;20107;-70
2022/05/19 01:45:47;;;;;;;5.65;3.55;;;;;;;9.16;53.74;99223.03;5077582;27;20043;-70
2022/05/19 01:48:50;;;;;;;4.53;3.33;;;;;;;9.29;53.80;99230.03;5060189;27;20092;-69
2022/05/19 01:51:33;;;;;;;5.85;3.00;;;;;;;9.32;54.09;99228.97;5086378;27;20051;-70
2022/05/19 01:54:07;;;;;;;7.15;3.28;;;;;;;9.38;53.63;99228.50;5096183;27;20121;-67
2022/05/19 01:56:41;;;;;;;7.88;3.28;;;;;;;9.42;54.26;99230.81;5059553;27;20043;-68
2022/05/19 01:59:09;;;;;;;4.70;3.40;;;;;;;9.45;54.01;99224.44;5096101;27;20418;-66
2022/05/19 02:01:35;;;;;;;3.20;2.78;;;;;;;9.45;52.97;99224.44;5052904;28;20123;-64
2022/05/19 02:04:11;;;;;;;6.95;3.08;;;;;;;9.51;53.42;99229.28;5074170;27;20127;-66
2022/05/19 02:06:45;;;;;;;4.47;3.55;;;;;;;9.54;53.45;99218.44;5060675;27;20050;-71
2022/05/19 02:09:16;;;;;;;7.57;3.38;;;;;;;9.56;52.52;99213.00;5077975;27;20034;-73
2022/05/19 02:11:45;;;;;;;5.60;3.22;;;;;;;9.56;52.46;99213.84;5061631;28;20615;-74
2022/05/19 02:14:15;;;;;;;5.32;2.90;;;;;;;9.64;52.77;99215.94;5096982;27;20043;-74
2022/05/19 02:16:42;;;;;;;2.92;2.58;;;;;;;9.67;52.82;99221.88;5078428;27;20091;-75
2022/05/19 02:19:10;;;;;;;3.88;3.08;;;;;;;9.70;52.49;99228.81;5077197;27;20057;-69
2022/05/19 02:21:35;;;;;;;4.35;3.40;;;;;;;9.74;53.14;99227.59;5061223;27;20519;-65
2022/05/19 02:24:01;;;;;;;5.43;2.92;;;;;;;9.78;52.83;99231.75;5077485;28;20405;-64
2022/05/19 02:26:33;;;;;;;3.38;2.63;;;;;;;9.83;52.30;99235.72;5076948;27;20154;-65
2022/05/19 02:29:05;;;;;;;4.28;3.38;;;;;;;9.88;52.84;99234.56;5077070;27;20410;-67
2022/05/19 02:31:29;;;;;;;4.68;3.00;;;;;;;9.88;52.58;99232.75;5060578;28;20039;-74
2022/05/19 02:33:54;;;;;;;8.32;3.50;;;;;;;9.95;52.17;99227.78;5045939;28;20043;-72
2022/05/19 02:36:19;;;;;;;2.83;2.55;;;;;;;9.97;51.54;99228.53;5074640;28;20068;-71
2022/05/19 02:38:43;;;;;;;6.43;3.50;;;;;;;9.99;51.92;99223.94;5060183;28;20444;-72
2022/05/19 02:41:09;;;;;;;3.33;2.78;;;;;;;10.01;52.35;99230.84;5058586;28;20464;-73
2022/05/19 02:43:34;;;;;;;4.75;2.90;;;;;;;10.02;52.28;99227.22;5105095;28;20433;-74
2022/05/19 02:45:58;;;;;;;4.47;3.25;;;;;;;10.03;51.76;99217.44;5089527;28;20043;-72
2022/05/19 02:48:23;;;;;;;4.07;3.00;;;;;;;10.05;51.94;99226.13;5107870;28;20362;-72
2022/05/19 02:50:49;;;;;;;7.95;3.20;;;;;;;10.05;52.29;99220.78;5102363;28;20192;-71
2022/05/19 02:53:15;;;;;;;9.15;3.72;;;;;;;10.05;52.32;99226.97;5098239;28;20050;-72
2022/05/19 02:55:41;;;;;;;6.25;3.58;;;;;;;10.05;51.86;99212.81;5076406;28;20510;-68
2022/05/19 02:58:09;;;;;;;8.65;3.22;;;;;;;10.08;51.47;99199.28;5096703;28;20047;-69
2022/05/19 03:00:34;;;;;;;5.72;3.10;;;;;;;10.12;51.67;99206.06;5076666;27;20054;-69
2022/05/19 03:02:59;;;;;;;4.07;2.92;;;;;;;10.16;51.60;99184.38;5063776;27;20042;-68
2022/05/19 03:05:27;;;;;;;4.05;2.75;;;;;;;10.24;50.91;99186.50;5081190;27;20039;-69
2022/05/19 03:07:52;;;;;;;5.25;2.92;;;;;;;10.31;51.39;99189.53;5064422;27;20039;-68
2022/05/19 03:10:17;;;;;;;4.38;3.08;;;;;;;10.37;51.05;99192.59;5081024;27;20038;-68
2022/05/19 03:12:42;;;;;;;7.93;3.63;;;;;;;10.43;51.11;99194.75;5099625;27;20047;-69
2022/05/19 03:15:08;;;;;;;4.07;3.00;;;;;;;10.46;50.87;99193.69;5100663;27;20043;-69
2022/05/19 03:17:33;;;;;;;5.78;3.35;;;;;;;10.48;51.14;99195.28;5083619;27;20043;-69
2022/05/19 03:19:59;;;;;;;5.50;3.03;;;;;;;10.49;50.61;99196.97;5102485;27;20054;-69
2022/05/19 03:22:27;;;;;;;2.97;2.53;;;;;;;10.50;51.32;99197.78;5083928;27;20061;-69
2022/05/19 03:24:52;;;;;;;3.78;3.15;;;;;;;10.53;51.44;99205.56;5069714;27;20077;-70
2022/05/19 03:27:20;;;;;;;2.85;2.58;;;;;;;10.53;51.05;99200.22;5088484;27;20077;-71
2022/05/19 03:29:45;;;;;;;7.18;2.97;;;;;;;10.57;50.54;99190.19;5096013;27;20055;-69
2022/05/19 03:32:10;;;;;;;3.05;2.75;;;;;;;10.54;50.65;99192.09;5078878;28;20523;-69
2022/05/19 03:34:36;;;;;;;3.58;3.00;;;;;;;10.57;50.65;99199.03;5099810;27;20520;-70
2022/05/19 03:37:04;;;;;;;7.57;3.20;;;;;;;10.64;51.37;99184.22;5080576;27;20498;-69
2022/05/19 03:39:29;;;;;;;5.35;3.60;;;;;;;10.68;50.71;99190.19;5081033;27;20091;-70
2022/05/19 03:41:54;;;;;;;4.32;3.13;;;;;;;10.74;50.55;99195.88;5098771;27;20122;-70
2022/05/19 03:44:20;;;;;;;5.30;3.20;;;;;;;10.84;50.46;99199.50;5098775;27;20039;-69
2022/05/19 03:46:44;;;;;;;3.08;2.53;;;;;;;10.94;50.54;99196.13;5080694;27;20050;-69
2022/05/19 03:49:11;;;;;;;5.30;3.35;;;;;;;11.01;50.17;99208.81;5080990;27;20140;-69
2022/05/19 03:51:36;;;;;;;4.75;2.80;;;;;;;11.04;50.52;99224.59;5082878;27;20039;-69
2022/05/19 03:54:01;;;;;;;3.45;3.15;;;;;;;11.04;50.14;99213.94;5101916;27;20049;-70
2022/05/19 03:56:26;;;;;;;4.38;3.03;;;;;;;11.05;49.91;99212.09;5100757;27;20070;-71
2022/05/19 03:58:51;;;;;;;8.00;3.25;;;;;;;11.03;49.80;99206.03;5080374;27;20050;-69
2022/05/19 04:01:18;;;;;;;5.13;3.00;;;;;;;11.05;50.17;99220.13;5080319;27;20043;-71
2022/05/19 04:03:43;;;;;;;4.28;2.72;;;;;;;11.08;50.02;99215.34;5098304;27;20043;-69
2022/05/19 04:06:08;;;;;;;4.25;3.30;;;;;;;11.01;49.54;99213.31;5063269;27;20034;-70
2022/05/19 04:08:33;;;;;;;3.85;2.95;;;;;;;11.05;49.66;99214.78;5080547;27;20047;-70
2022/05/19 04:10:58;;;;;;;3.20;2.90;;;;;;;11.08;49.89;99211.84;5036111;28;20098;-69
2022/05/19 04:13:23;;;;;;;6.50;3.03;;;;;;;11.13;49.87;99212.34;5015671;28;20068;-69
2022/05/19 04:15:47;;;;;;;4.15;2.85;;;;;;;11.15;50.65;99213.91;4999311;28;20052;-69
2022/05/19 04:18:12;;;;;;;2.80;2.47;;;;;;;11.19;50.79;99212.66;5015363;28;20056;-70
2022/05/19 04:20:37;;;;;;;4.32;3.17;;;;;;;11.25;51.19;99206.00;4998527;28;20519;-70
2022/05/19 04:23:02;;;;;;;4.30;2.90;;;;;;;11.34;51.82;99193.72;5015753;28;20503;-69
2022/05/19 04:25:29;;;;;;;6.97;3.30;;;;;;;11.50;51.27;99210.19;5015145;28;20605;-70
2022/05/19 04:27:53;;;;;;;4.55;3.15;;;;;;;11.75;51.12;99209.00;5015309;28;20585;-69
2022/05/19 04:30:18;;;;;;;5.72;3.40;;;;;;;12.07;50.87;99203.69;5016479;28;20411;-70
2022/05/19 04:32:44;;;;;;;5.90;2.70;;;;;;;12.29;49.42;99214.25;5016331;28;20510;-69
2022/05/19 04:35:12;;;;;;;7.25;3.30;;;;;;;12.36;49.85;99204.72;5016362;28;20033;-69
2022/05/19 04:37:37;;;;;;;3.30;2.83;;;;;;;12.31;50.13;99207.75;5000036;28;20086;-71
2022/05/19 04:40:04;;;;;;;3.28;2.75;;;;;;;12.29;49.35;99215.09;5016911;28;20140;-71
2022/05/19 04:42:29;;;;;;;4.53;2.97;;;;;;;12.27;49.64;99210.84;5037241;28;20510;-71
2022/05/19 04:44:55;;;;;;;4.97;2.80;;;;;;;12.26;49.84;99222.50;5053338;28;20399;-71
2022/05/19 04:47:20;;;;;;;4.70;3.00;;;;;;;12.30;49.47;99221.28;5026036;28;20039;-72
2022/05/19 04:49:45;;;;;;;5.70;3.30;;;;;;;12.29;49.82;99215.09;5076370;28;20058;-71
2022/05/19 04:52:09;;;;;;;7.90;2.83;;;;;;;12.44;50.23;99223.59;5077829;28;20096;-72
2022/05/19 04:54:34;;;;;;;3.35;3.00;;;;;;;12.55;49.89;99220.84;5058878;28;20169;-70
2022/05/19 04:56:59;;;;;;;3.50;3.13;;;;;;;12.44;49.25;99217.41;5076049;28;20122;-70
2022/05/19 04:59:23;;;;;;;5.78;3.22;;;;;;;12.31;50.03;99217.59;5076951;28;20185;-71
2022/05/19 05:01:49;;;;;;;4.18;3.03;;;;;;;12.20;50.73;99228.34;5041899;28;20043;-70
2022/05/19 05:04:15;;;;;;;3.25;2.70;;;;;;;12.13;51.20;99229.88;5077082;28;20092;-70
2022/05/19 05:06:40;;;;;;;10.25;3.47;;;;;;;12.12;51.83;99237.03;5075944;28;20048;-69
2022/05/19 05:09:06;;;;;;;5.20;3.65;;;;;;;12.07;52.28;99235.75;5076992;28;20050;-70
2022/05/19 05:11:31;;;;;;;9.20;3.25;;;;;;;11.97;52.29;99235.63;5077112;28;20039;-70
2022/05/19 05:13:56;;;;;;;8.70;3.50;;;;;;;11.87;52.69;99234.72;5076594;28;20051;-66
2022/05/19 05:16:21;;;;;;;3.67;3.28;;;;;;;11.75;53.21;99231.25;5074779;28;20117;-67
2022/05/19 05:18:45;;;;;;;4.28;3.42;;;;;;;11.71;54.05;99224.44;5076048;28;20085;-66
2022/05/19 05:21:13;;;;;;;7.72;3.15;;;;;;;11.69;54.38;99230.88;5076153;28;20047;-66
2022/05/19 05:23:38;;;;;;;5.15;3.40;;;;;;;11.73;54.47;99224.31;5076391;28;20077;-64
2022/05/19 05:26:03;;;;;;;4.78;4.03;;;;;;;11.67;54.29;99220.31;5076135;28;20108;-65
2022/05/19 05:28:28;;;;;;;3.42;2.97;;;;;;;11.65;54.53;99219.59;5057989;28;20039;-66
2022/05/19 05:30:52;;;;;;;4.63;3.50;;;;;;;11.61;54.85;99213.69;5075806;28;20066;-64
2022/05/19 05:33:18;;;;;;;5.60;3.17;;;;;;;11.71;55.37;99218.25;5057872;28;20580;-63
2022/05/19 05:35:43;;;;;;;4.25;3.08;;;;;;;11.90;54.74;99215.78;5076654;28;20543;-70
2022/05/19 05:38:08;;;;;;;3.47;2.92;;;;;;;12.07;54.03;99214.38;5057955;28;20106;-71
2022/05/19 05:40:35;;;;;;;4.22;3.50;;;;;;;12.30;53.78;99210.59;5058734;28;20043;-70
2022/05/19 05:43:07;;;;;;;5.38;3.60;;;;;;;12.41;53.63;99199.81;5077457;28;20054;-70
2022/05/19 05:45:32;;;;;;;8.05;4.13;;;;;;;12.35;53.64;99193.16;5059613;28;20500;-71
2022/05/19 05:47:57;;;;;;;7.68;3.80;;;;;;;12.34;54.18;99204.84;5077023;28;20409;-71
2022/05/19 05:50:22;;;;;;;5.35;3.67;;;;;;;12.39;54.44;99203.59;5076271;28;20031;-70
2022/05/19 05:52:47;;;;;;;8.45;4.63;;;;;;;12.51;53.89;99203.41;5057623;28;20529;-65
2022/05/19 05:55:12;;;;;;;9.45;5.47;;;;;;;12.65;52.77;99195.00;5057237;28;20490;-64
2022/05/19 05:57:37;;;;;;;9.98;7.22;;;;;;;12.82;53.04;99192.69;5074134;28;20126;-65
2022/05/19 06:00:04;;;;;;;8.02;5.47;;;;;;;13.06;52.54;99201.25;5075600;28;20050;-66
2022/05/19 06:02:37;;;;;;;10.80;6.82;;;;;;;13.42;51.39;99199.81;5075458;28;20585;-65
2022/05/19 06:05:02;;;;;;;7.72;5.07;;;;;;;13.76;50.44;99203.81;5075126;28;20597;-66
2022/05/19 06:07:29;;;;;;;6.35;4.50;;;;;;;13.97;50.09;99200.13;5057302;28;20126;-71
2022/05/19 06:09:54;;;;;;;6.95;4.60;;;;;;;14.01;49.26;99199.69;5074947;28;20078;-71
2022/05/19 06:12:18;;;;;;;7.35;4.80;;;;;;;13.96;50.01;99201.13;5075125;28;20075;-70
2022/05/19 06:14:43;;;;;;;4.32;3.40;;;;;;;13.95;49.95;99194.06;5059223;28;20043;-66
2022/05/19 06:17:08;;;;;;;6.35;4.32;;;;;;;14.03;49.57;99203.06;5075368;28;20106;-66
2022/05/19 06:19:33;;;;;;;5.22;3.47;;;;;;;14.31;49.68;99192.47;5076304;28;20055;-66
2022/05/19 06:21:57;;;;;;;9.13;3.53;;;;;;;14.54;47.69;99199.22;5041499;28;20116;-64
2022/05/19 06:24:22;;;;;;;6.35;3.17;;;;;;;14.55;47.75;99187.50;5078099;28;20104;-66
2022/05/19 06:26:48;;;;;;;3.40;3.10;;;;;;;14.49;48.13;99194.28;5075385;28;20391;-65
2022/05/19 06:29:12;;;;;;;4.88;3.38;;;;;;;14.44;48.12;99191.22;5075050;28;20044;-66
2022/05/19 06:31:37;;;;;;;3.72;3.03;;;;;;;14.42;47.70;99189.66;5056727;28;20058;-66
2022/05/19 06:34:02;;;;;;;5.18;2.90;;;;;;;14.40;48.19;99195.16;5075105;28;20414;-65
2022/05/19 06:36:28;;;;;;;4.57;2.65;;;;;;;14.39;48.39;99193.47;5056147;28;20047;-65
2022/05/19 06:38:53;;;;;;;3.70;2.83;;;;;;;14.37;48.19;99197.25;5056798;28;20051;-65
2022/05/19 06:44:01;;;;;;;6.20;3.17;;;;;;;14.20;47.91;99195.31;5074296;28;20112;-65
2022/05/19 06:46:26;;;;;;;6.60;3.70;;;;;;;14.12;48.21;99194.16;5075346;28;20561;-65
2022/05/19 06:48:52;;;;;;;6.22;3.30;;;;;;;14.07;48.54;99198.28;5075488;28;20497;-66
2022/05/19 06:51:18;;;;;;;5.05;2.45;;;;;;;14.03;48.23;99197.72;5074980;28;20104;-65
2022/05/19 06:53:42;;;;;;;6.07;3.10;;;;;;;14.05;47.96;99197.56;5056910;28;20051;-65
2022/05/19 06:56:08;;;;;;;7.90;3.55;;;;;;;14.06;47.93;99199.28;5057629;28;20047;-65
2022/05/19 06:58:33;;;;;;;5.82;3.45;;;;;;;14.13;47.46;99206.59;5081348;28;20043;-64
2022/05/19 07:00:58;;;;;;;6.80;3.72;;;;;;;14.22;48.31;99204.88;5059199;28;20066;-64
2022/05/19 07:03:22;;;;;;;5.05;3.63;;;;;;;14.25;47.39;99212.66;5088271;28;20032;-65
2022/05/19 07:05:47;;;;;;;7.18;3.80;;;;;;;14.28;47.94;99215.03;5084446;28;20050;-64
2022/05/19 07:08:13;;;;;;;6.38;3.65;;;;;;;14.36;47.60;99212.47;5080786;28;20054;-64
2022/05/19 07:10:37;;;;;;;5.80;3.92;;;;;;;14.42;47.12;99211.97;5074572;28;20042;-66
2022/05/19 07:13:03;;;;;;;7.18;3.80;;;;;;;14.48;47.83;99215.88;5075464;28;20623;-64
2022/05/19 07:15:28;;;;;;;3.78;3.25;;;;;;;14.60;47.33;99203.16;5077047;28;20474;-66
2022/05/19 07:17:53;;;;;;;8.10;4.07;;;;;;;14.87;47.46;99205.88;5042312;28;20040;-65
2022/05/19 07:23:03;;;;;;;7.03;3.50;;;;;;;15.48;45.23;99205.25;5075277;28;20088;-66
2022/05/19 07:25:29;;;;;;;3.85;3.42;;;;;;;15.55;44.89;99190.28;5075618;28;20040;-68
2022/05/19 07:27:54;;;;;;;5.65;3.50;;;;;;;15.63;44.91;99197.56;5075326;28;20089;-65
2022/05/19 07:30:19;;;;;;;5.18;3.30;;;;;;;15.75;44.88;99197.19;5073734;28;20487;-66
2022/05/19 07:32:44;;;;;;;5.75;4.30;;;;;;;16.04;44.65;99191.56;5074759;28;20050;-65
2022/05/19 07:35:11;;;;;;;5.68;3.92;;;;;;;16.31;44.08;99198.69;5052845;28;20040;-64
2022/05/19 07:37:37;;;;;;;5.43;3.80;;;;;;;16.45;43.52;99194.59;5053590;28;20067;-65
2022/05/19 07:40:04;;;;;;;4.22;3.35;;;;;;;16.66;43.16;99212.09;5056380;28;20043;-65
2022/05/19 07:42:29;;;;;;;6.07;3.85;;;;;;;16.78;43.15;99185.75;5074353;28;20506;-66
2022/05/19 07:44:54;;;;;;;7.97;3.45;;;;;;;16.79;42.16;99184.72;5074664;28;20655;-66
2022/05/19 07:47:19;;;;;;;3.85;3.10;;;;;;;16.95;42.00;99182.09;5074849;28;20047;-65
2022/05/19 07:49:44;;;;;;;7.93;3.38;;;;;;;17.06;42.56;99172.91;5042912;28;20043;-68
2022/05/19 07:52:10;;;;;;;4.60;3.67;;;;;;;17.10;41.71;99184.19;5077515;28;20031;-65
2022/05/19 07:54:35;;;;;;;4.95;3.40;;;;;;;17.04;41.87;99191.09;5060721;28;20061;-65
2022/05/19 07:57:00;;;;;;;6.28;4.10;;;;;;;16.83;42.46;99202.25;5077480;28;20047;-64
2022/05/19 07:59:27;;;;;;;4.60;3.55;;;;;;;16.68;42.70;99198.47;5077883;28;20040;-67
2022/05/19 08:01:53;;;;;;;8.30;3.78;;;;;;;16.52;43.21;99190.25;5026011;28;20043;-65
2022/05/19 08:04:19;;;;;;;6.75;3.47;;;;;;;16.30;43.36;99187.06;5059590;28;20043;-67
2022/05/19 08:06:43;;;;;;;4.65;3.70;;;;;;;16.07;43.66;99190.41;5057551;28;20185;-67
2022/05/19 08:11:53;;;;;;;11.90;4.05;;;;;;;15.82;44.04;99192.03;5060629;28;20125;-68
2022/05/19 08:17:03;;;;;;;7.65;3.78;;;;;;;15.52;44.07;99183.34;5077565;28;20087;-68
2022/05/19 08:19:29;;;;;;;6.57;3.28;;;;;;;15.35;44.22;99173.38;5078419;28;20055;-71
2022/05/19 08:21:54;;;;;;;7.20;3.47;;;;;;;15.19;44.54;99175.91;5059019;28;20094;-68
2022/05/19 08:24:19;;;;;;;3.58;3.28;;;;;;;14.98;45.03;99172.63;5082916;28;20047;-69
2022/05/19 08:26:43;;;;;;;6.40;3.78;;;;;;;14.78;45.13;99164.69;5078964;28;20050;-72
2022/05/19 08:29:08;;;;;;;5.55;3.13;;;;;;;14.73;45.91;99161.59;5083011;28;20103;-70
2022/05/19 08:31:33;;;;;;;5.85;3.33;;;;;;;14.88;45.75;99170.00;5077633;28;20408;-70
2022/05/19 08:33:58;;;;;;;5.07;3.42;;;;;;;15.01;44.88;99164.28;5078425;28;20130;-71
2022/05/19 08:36:25;;;;;;;5.35;3.58;;;;;;;15.02;44.69;99165.97;5060051;28;20172;-71
2022/05/19 08:38:50;;;;;;;6.05;3.17;;;;;;;15.01;44.18;99165.09;5062493;28;20122;-71
2022/05/19 08:41:27;;;;;;;14.70;4.38;;;;;;;15.14;44.34;99165.59;5064991;28;20362;-71
2022/05/19 08:43:58;;;;;;;4.93;2.78;;;;;;;15.49;43.64;99155.91;5061216;28;20051;-70
2022/05/19 08:46:36;;;;;;;11.27;3.15;;;;;;;15.92;42.63;99152.47;5066911;28;20036;-69
2022/05/19 08:49:10;;;;;;;9.90;4.32;;;;;;;16.29;42.66;99157.63;5080096;28;20448;-69
2022/05/19 08:51:42;;;;;;;8.07;3.75;;;;;;;17.16;40.67;99151.22;5060303;28;20050;-71
2022/05/19 08:54:13;;;;;;;7.07;3.70;;;;;;;18.31;39.58;99145.78;5078059;28;20540;-70
2022/05/19 08:56:44;;;;;;;6.18;3.17;;;;;;;18.95;36.22;99152.94;5059765;28;20130;-70
2022/05/19 08:59:30;;;;;;;8.35;3.67;;;;;;;19.32;35.83;99152.22;5078510;28;20044;-71
2022/05/19 09:02:07;;;;;;;4.10;3.33;;;;;;;19.25;37.14;99155.81;5059501;28;20065;-72
2022/05/19 09:04:39;;;;;;;5.80;4.22;;;;;;;18.99;36.69;99146.16;5059263;28;20092;-70
2022/05/19 09:10:06;;;;;;;7.22;3.40;;;;;;;18.33;37.10;99147.31;5076218;28;20051;-68
2022/05/19 09:12:35;;;;;;;5.50;3.45;;;;;;;17.98;36.91;99156.63;5077809;28;20081;-69
2022/05/19 09:15:02;;;;;;;5.43;3.50;;;;;;;17.82;37.81;99147.69;5079254;28;20035;-70
2022/05/19 09:17:30;;;;;;;5.60;3.60;;;;;;;17.78;38.15;99150.72;5026035;28;20035;-69
2022/05/19 09:20:02;;;;;;;3.72;3.13;;;;;;;17.78;38.65;99142.63;5077009;28;20047;-68
2022/05/19 09:22:33;;;;;;;5.95;3.47;;;;;;;17.73;37.78;99147.66;5076698;28;20047;-68
2022/05/19 09:24:58;;;;;;;5.63;3.60;;;;;;;17.74;37.71;99149.34;5047053;28;20044;-67
2022/05/19 09:27:23;;;;;;;4.25;3.03;;;;;;;17.75;38.58;99142.94;5072151;28;20526;-67
2022/05/19 09:29:53;;;;;;;3.42;3.13;;;;;;;18.06;38.34;99139.56;5076694;28;20043;-66
2022/05/19 09:32:37;;;;;;;8.48;3.55;;;;;;;18.36;37.91;99146.97;5041989;28;20084;-66
2022/05/19 09:35:18;;;;;;;12.40;4.10;;;;;;;18.39;38.06;99145.81;5041116;28;20051;-66
2022/05/19 09:37:46;;;;;;;6.20;3.83;;;;;;;18.07;38.58;99147.50;5057766;28;20118;-67
2022/05/19 09:40:10;;;;;;;7.50;3.97;;;;;;;17.84;39.91;99134.84;5040934;28;20043;-65
2022/05/19 09:42:48;;;;;;;6.75;4.15;;;;;;;18.15;38.34;99130.50;5074461;28;20035;-66
2022/05/19 09:45:13;;;;;;;6.25;4.10;;;;;;;18.54;38.29;99130.56;5057722;28;20048;-65
2022/05/19 09:47:43;;;;;;;6.72;4.07;;;;;;;19.18;37.84;99136.78;5075802;28;20046;-66
2022/05/19 09:50:22;;;;;;;8.20;3.63;;;;;;;20.76;36.42;99141.47;5076073;28;20049;-65
2022/05/19 09:52:47;;;;;;;14.43;4.78;;;;;;;23.37;32.45;99132.38;5057473;28;20429;-68
2022/05/19 09:55:15;;;;;;;10.10;4.75;;;;;;;25.48;29.29;99142.38;5057433;28;20445;-66
2022/05/19 09:57:44;;;;;;;5.38;4.13;;;;;;;26.83;27.49;99141.81;5075741;28;20402;-66
2022/05/19 10:00:18;;;;;;;5.63;3.97;;;;;;;27.03;27.44;99145.19;5057277;28;20470;-68
2022/05/19 10:02:45;;;;;;;8.20;4.07;;;;;;;26.03;27.64;99146.28;5057379;28;20125;-69
2022/05/19 10:05:39;;;;;;;5.57;4.32;;;;;;;25.16;28.04;99153.22;5057407;28;20455;-66
2022/05/19 10:08:12;;;;;;;9.27;5.07;;;;;;;23.79;30.13;99144.03;5055406;28;20047;-67
2022/05/19 10:10:49;;;;;;;7.63;4.30;;;;;;;23.46;31.42;99136.59;5075070;28;20046;-67
2022/05/19 10:13:16;;;;;;;7.47;3.97;;;;;;;23.33;31.08;99128.41;5074111;28;20185;-67
2022/05/19 10:15:51;;;;;;;7.25;4.22;;;;;;;23.91;30.35;99128.78;5075508;28;20039;-66
2022/05/19 10:18:40;;;;;;;5.80;4.30;;;;;;;25.01;29.48;99133.53;5057371;28;20039;-67
2022/05/19 10:21:28;;;;;;;8.40;3.55;;;;;;;25.40;28.81;99129.78;5074830;28;20426;-66
2022/05/19 10:24:14;;;;;;;6.25;3.78;;;;;;;24.75;28.63;99128.97;5075674;28;20401;-65
2022/05/19 10:33:06;;;;;;;6.78;3.35;;;;;;;22.80;31.17;99111.81;5075097;28;20050;-66
2022/05/19 10:35:37;;;;;;;5.63;3.20;;;;;;;22.21;31.73;99111.41;5056821;28;20043;-68
2022/05/19 10:38:24;;;;;;;5.00;3.53;;;;;;;21.88;32.25;99112.97;5056615;28;20048;-67
2022/05/19 10:41:07;;;;;;;4.13;3.72;;;;;;;21.41;32.13;99099.97;5075298;28;20040;-68
2022/05/19 10:43:55;;;;;;;7.25;3.25;;;;;;;21.27;32.62;99094.41;5056608;28;20043;-69
2022/05/19 10:46:23;;;;;;;9.85;3.85;;;;;;;20.97;32.92;99092.78;5073568;28;20522;-69
2022/05/19 10:49:12;;;;;;;6.15;3.65;;;;;;;20.67;33.30;99097.34;5073462;28;20031;-69
2022/05/19 10:51:43;;;;;;;4.90;3.58;;;;;;;20.46;33.36;99099.97;5056780;28;20516;-71
2022/05/19 10:54:22;;;;;;;7.32;2.88;;;;;;;20.50;33.20;99107.53;5057110;28;20381;-72
2022/05/19 10:57:21;;;;;;;3.10;2.80;;;;;;;20.71;32.95;99105.97;5074071;28;20062;-72
2022/05/19 11:00:01;;;;;;;5.28;3.08;;;;;;;20.80;32.61;99086.69;5057131;28;20498;-67
2022/05/19 11:03:14;;;;;;;4.10;2.90;;;;;;;20.89;31.38;99093.69;5057252;28;20039;-66
2022/05/19 11:05:57;;;;;;;6.80;2.97;;;;;;;20.62;32.63;99089.81;4978947;28;20041;-65
2022/05/19 11:08:44;;;;;;;8.60;3.38;;;;;;;20.46;33.19;99097.25;4996144;28;20079;-66
2022/05/19 11:11:29;;;;;;;7.85;3.30;;;;;;;20.28;33.40;99090.31;4997459;28;20577;-65
2022/05/19 11:14:06;;;;;;;2.72;2.50;;;;;;;19.98;34.31;99080.44;5014989;28;20060;-65
2022/05/19 11:16:32;;;;;;;6.18;2.78;;;;;;;19.62;34.10;99082.97;5013225;28;20444;-65
2022/05/19 11:19:04;;;;;;;3.70;2.55;;;;;;;19.30;34.23;99081.28;4996286;28;20048;-69
2022/05/19 11:22:04;;;;;;;3.67;3.20;;;;;;;18.94;34.93;99081.00;5013825;28;20045;-71
2022/05/19 11:24:33;;;;;;;5.25;2.95;;;;;;;18.61;36.10;99074.91;5016949;28;20076;-68
2022/05/19 11:27:11;;;;;;;4.28;2.50;;;;;;;18.49;36.13;99070.88;5016349;28;20056;-66
2022/05/19 11:29:52;;;;;;;3.70;3.22;;;;;;;18.39;36.55;99089.13;5016624;28;20053;-71
2022/05/19 11:32:27;;;;;;;7.55;3.50;;;;;;;18.10;37.12;99087.81;5016457;28;20049;-69
2022/05/19 11:35:03;;;;;;;7.65;3.85;;;;;;;17.72;38.52;99100.13;5017327;28;20057;-66
2022/05/19 11:37:41;;;;;;;6.03;3.45;;;;;;;17.22;42.38;99091.31;5017347;28;20047;-65
2022/05/19 11:40:29;;;;;;;7.05;3.55;;;;;;;16.75;43.61;99086.44;5017038;28;20122;-66
2022/05/19 11:43:14;;;;;;;4.97;3.33;;;;;;;16.48;44.85;99081.28;5044711;28;20631;-66
2022/05/19 11:45:45;;;;;;;6.35;3.20;;;;;;;16.29;44.77;99082.31;5082387;27;20043;-69
2022/05/19 11:57:42;;;;;;;6.55;3.85;;;;;;;17.12;44.58;99069.06;5081951;27;20111;-69
2022/05/19 12:00:10;;;;;;;7.00;3.13;;;;;;;17.18;44.26;99061.16;5099025;27;20125;-71
2022/05/19 12:02:49;;;;;;;6.60;4.90;;;;;;;17.36;44.38;99067.25;5099780;27;20481;-75
2022/05/19 12:05:25;;;;;;;7.55;3.25;;;;;;;17.54;42.87;99059.00;5098660;27;20424;-75
2022/05/19 12:07:54;;;;;;;3.28;2.80;;;;;;;17.51;41.96;99056.63;5063748;27;20045;-74
2022/05/19 12:10:33;;;;;;;3.35;2.72;;;;;;;17.42;42.35;99049.56;5080206;27;20050;-73
2022/05/19 12:13:00;;;;;;;4.55;3.35;;;;;;;17.10;42.66;99049.53;5099790;27;20043;-71